createdAt,value
2022-12-17T00:00:03.648Z,1.80
2022-12-17T00:03:15.807Z,1.80
2022-12-17T00:06:22.980Z,1.80
2022-12-17T00:09:22.843Z,1.80
2022-12-17T00:12:28.584Z,1.80
2022-12-17T00:15:37.135Z,1.70
2022-12-17T00:18:44.622Z,1.80
2022-12-17T00:21:51.645Z,1.80
2022-12-17T00:24:51.205Z,1.80
2022-12-17T00:27:57.690Z,1.70
2022-12-17T00:30:57.551Z,1.70
2022-12-17T00:34:02.644Z,1.70
2022-12-17T00:37:03.558Z,1.40
2022-12-17T00:40:10.648Z,1.30
2022-12-17T00:43:24.660Z,1.40
2022-12-17T00:46:24.406Z,1.40
2022-12-17T00:49:30.605Z,1.50
2022-12-17T00:52:31.888Z,1.50
2022-12-17T00:55:37.595Z,1.50
2022-12-17T00:58:37.359Z,1.50
2022-12-17T01:01:43.745Z,1.50
2022-12-17T01:04:42.843Z,1.50
2022-12-17T01:07:55.619Z,1.50
2022-12-17T01:11:03.618Z,1.30
2022-12-17T01:14:03.187Z,1.30
2022-12-17T01:17:07.678Z,1.30
2022-12-17T01:20:07.106Z,1.30
2022-12-17T01:23:13.664Z,1.20
2022-12-17T01:26:12.880Z,1.20
2022-12-17T01:29:18.707Z,1.20
2022-12-17T01:32:18.229Z,1.20
2022-12-17T01:35:22.893Z,1.20
2022-12-17T01:38:37.587Z,1.10
2022-12-17T01:41:37.166Z,0.90
2022-12-17T01:45:14.618Z,1.00
2022-12-17T01:48:28.006Z,1.10
2022-12-17T01:51:34.700Z,1.20
2022-12-17T01:54:36.179Z,1.20
2022-12-17T01:57:41.667Z,0.90
2022-12-17T02:00:48.724Z,0.70
2022-12-17T02:04:00.620Z,0.50
2022-12-17T02:07:15.667Z,0.50
2022-12-17T02:10:24.160Z,0.60
2022-12-17T02:13:38.922Z,0.60
2022-12-17T02:16:42.358Z,0.70
2022-12-17T02:20:15.640Z,0.80
2022-12-17T02:23:36.044Z,0.90
2022-12-17T02:26:48.320Z,0.90
2022-12-17T02:29:57.605Z,0.70
2022-12-17T02:33:02.749Z,0.40
2022-12-17T02:36:14.597Z,0.50
2022-12-17T02:39:14.299Z,0.70
2022-12-17T02:42:24.646Z,0.50
2022-12-17T02:45:31.744Z,0.70
2022-12-17T02:48:33.691Z,0.80
2022-12-17T02:51:41.678Z,0.90
2022-12-17T02:54:41.531Z,0.90
2022-12-17T02:57:53.648Z,1.00
2022-12-17T03:00:53.314Z,1.00
2022-12-17T03:03:58.630Z,1.00
2022-12-17T03:06:58.657Z,1.00
2022-12-17T03:10:04.700Z,1.00
2022-12-17T03:13:15.629Z,1.00
2022-12-17T03:16:14.945Z,1.00
2022-12-17T03:19:21.609Z,1.00
2022-12-17T03:22:20.737Z,1.00
2022-12-17T03:25:26.652Z,0.90
2022-12-17T03:28:30.008Z,0.90
2022-12-17T03:31:35.756Z,1.00
2022-12-17T03:34:53.722Z,0.90
2022-12-17T03:37:53.581Z,0.80
2022-12-17T03:40:59.651Z,0.70
2022-12-17T03:44:00.084Z,0.70
2022-12-17T03:47:05.768Z,0.70
2022-12-17T03:50:05.231Z,0.50
2022-12-17T03:53:10.657Z,0.10
2022-12-17T03:56:10.240Z,-0.10
2022-12-17T03:59:28.659Z,-0.10
2022-12-17T04:02:41.841Z,0.20
2022-12-17T04:05:41.176Z,0.40
2022-12-17T04:08:46.716Z,0.50
2022-12-17T04:11:46.050Z,0.60
2022-12-17T04:14:52.670Z,0.60
2022-12-17T04:17:51.870Z,0.50
2022-12-17T04:20:57.642Z,0.60
2022-12-17T04:24:09.700Z,0.60
2022-12-17T04:27:09.295Z,0.60
2022-12-17T04:30:16.642Z,0.60
2022-12-17T04:33:16.329Z,0.60
2022-12-17T04:36:21.651Z,0.50
2022-12-17T04:39:20.966Z,0.50
2022-12-17T04:42:25.783Z,0.50
2022-12-17T04:45:34.705Z,0.50
2022-12-17T04:48:34.252Z,0.50
2022-12-17T04:51:39.784Z,0.40
2022-12-17T04:54:39.319Z,0.40
2022-12-17T04:57:44.696Z,0.40
2022-12-17T05:00:45.272Z,0.40
2022-12-17T05:03:50.676Z,0.40
2022-12-17T05:06:50.535Z,0.40
2022-12-17T05:09:58.642Z,0.40
2022-12-17T05:13:03.641Z,0.30
2022-12-17T05:16:04.371Z,0.30
2022-12-17T05:19:08.658Z,0.30
2022-12-17T05:22:08.151Z,0.20
2022-12-17T05:25:12.635Z,0.00
2022-12-17T05:28:12.200Z,0.00
2022-12-17T05:31:23.940Z,-0.20
2022-12-17T05:34:23.261Z,0.00
2022-12-17T05:37:27.642Z,0.10
2022-12-17T05:40:40.667Z,0.10
2022-12-17T05:43:40.325Z,0.10
2022-12-17T05:46:46.777Z,0.20
2022-12-17T05:49:45.818Z,0.00
2022-12-17T05:52:51.748Z,-0.50
2022-12-17T05:55:51.238Z,-0.40
2022-12-17T05:58:56.631Z,-0.50
2022-12-17T06:02:10.760Z,-0.40
2022-12-17T06:05:10.421Z,-0.10
2022-12-17T06:08:14.678Z,0.20
2022-12-17T06:11:17.234Z,0.30
2022-12-17T06:14:21.689Z,0.50
2022-12-17T06:17:22.428Z,0.30
2022-12-17T06:20:27.714Z,0.10
2022-12-17T06:23:29.469Z,0.20
2022-12-17T06:26:34.671Z,0.40
2022-12-17T06:29:40.697Z,0.40
2022-12-17T06:32:41.634Z,0.40
2022-12-17T06:35:47.665Z,0.00
2022-12-17T06:38:47.406Z,0.20
2022-12-17T06:41:52.675Z,0.20
2022-12-17T06:44:51.461Z,0.30
2022-12-17T06:47:57.724Z,0.10
2022-12-17T06:51:03.659Z,-0.30
2022-12-17T06:54:09.740Z,-0.30
2022-12-17T06:57:08.683Z,-0.40
2022-12-17T07:00:07.922Z,-0.30
2022-12-17T07:03:15.703Z,-0.10
2022-12-17T07:06:15.116Z,0.10
2022-12-17T07:09:19.757Z,0.20
2022-12-17T07:12:18.830Z,0.30
2022-12-17T07:15:29.758Z,0.40
2022-12-17T07:18:36.779Z,0.30
2022-12-17T07:21:35.422Z,0.20
2022-12-17T07:24:40.692Z,0.20
2022-12-17T07:27:39.290Z,0.00
2022-12-17T07:30:44.720Z,-0.10
2022-12-17T07:33:45.307Z,-0.30
2022-12-17T07:36:50.652Z,-0.40
2022-12-17T07:39:49.506Z,-0.50
2022-12-17T07:42:54.759Z,-0.50
2022-12-17T07:46:00.775Z,-0.50
2022-12-17T07:49:08.221Z,-0.60
2022-12-17T07:52:07.731Z,-0.60
2022-12-17T07:55:07.044Z,-0.70
2022-12-17T07:58:11.708Z,-0.80
2022-12-17T08:01:11.139Z,-1.00
2022-12-17T08:04:17.746Z,-0.90
2022-12-17T08:07:16.937Z,-0.90
2022-12-17T08:10:21.728Z,-0.70
2022-12-17T08:13:23.002Z,-0.70
2022-12-17T08:16:27.754Z,-0.70
2022-12-17T08:19:34.703Z,-0.70
2022-12-17T08:22:34.325Z,-0.70
2022-12-17T08:25:39.829Z,-0.70
2022-12-17T08:28:50.570Z,-0.80
2022-12-17T08:31:56.762Z,-0.90
2022-12-17T08:34:57.554Z,-1.00
2022-12-17T08:38:03.712Z,-1.00
2022-12-17T08:41:09.777Z,-0.90
2022-12-17T08:44:09.079Z,-0.80
2022-12-17T08:47:13.678Z,-0.70
2022-12-17T08:50:14.563Z,-0.70
2022-12-17T08:53:19.685Z,-0.70
2022-12-17T08:56:19.153Z,-0.60
2022-12-17T08:59:24.710Z,-0.70
2022-12-17T09:02:36.807Z,-0.80
2022-12-17T09:05:44.708Z,-0.80
2022-12-17T09:08:43.717Z,-0.60
2022-12-17T09:11:43.923Z,-0.60
2022-12-17T09:14:49.768Z,-0.50
2022-12-17T09:17:48.996Z,-0.30
2022-12-17T09:21:00.737Z,-0.40
2022-12-17T09:24:00.335Z,-0.30
2022-12-17T09:27:05.766Z,-0.10
2022-12-17T09:30:11.723Z,0.00
2022-12-17T09:33:11.710Z,-0.10
2022-12-17T09:36:18.783Z,0.10
2022-12-17T09:39:18.360Z,0.30
2022-12-17T09:42:32.714Z,0.20
2022-12-17T09:45:34.678Z,0.30
2022-12-17T09:48:46.740Z,0.40
2022-12-17T09:51:50.421Z,0.50
2022-12-17T09:55:01.594Z,0.50
2022-12-17T09:58:08.703Z,0.40
2022-12-17T10:01:09.241Z,0.50
2022-12-17T10:04:18.735Z,0.40
2022-12-17T10:07:20.564Z,0.40
2022-12-17T10:10:26.732Z,0.40
2022-12-17T10:13:35.352Z,0.60
2022-12-17T10:16:57.718Z,0.70
2022-12-17T10:20:06.776Z,0.80
2022-12-17T10:23:11.534Z,1.00
2022-12-17T10:26:17.800Z,1.10
2022-12-17T10:29:25.447Z,1.10
2022-12-17T10:32:35.734Z,1.30
2022-12-17T10:35:42.541Z,1.20
2022-12-17T10:38:51.720Z,1.30
2022-12-17T10:42:03.952Z,1.40
2022-12-17T10:45:09.793Z,1.50
2022-12-17T10:48:15.725Z,1.50
2022-12-17T10:51:15.324Z,1.60
2022-12-17T10:54:24.269Z,1.50
2022-12-17T10:57:26.514Z,1.50
2022-12-17T11:00:31.815Z,1.50
2022-12-17T11:04:01.754Z,1.60
2022-12-17T11:07:11.895Z,1.50
2022-12-17T11:10:15.444Z,1.50
2022-12-17T11:13:24.733Z,1.80
2022-12-17T11:16:32.833Z,1.90
2022-12-17T11:20:01.660Z,2.10
2022-12-17T11:23:07.857Z,2.20
2022-12-17T11:26:14.480Z,2.30
2022-12-17T11:29:18.725Z,2.30
2022-12-17T11:32:42.911Z,2.40
2022-12-17T11:35:54.739Z,2.30
2022-12-17T11:38:57.521Z,2.20
2022-12-17T11:42:11.578Z,2.10
2022-12-17T11:45:32.808Z,2.20
2022-12-17T11:48:44.496Z,2.20
2022-12-17T11:51:51.769Z,2.30
2022-12-17T11:54:58.569Z,2.50
2022-12-17T11:58:13.756Z,2.50
2022-12-17T12:01:21.220Z,2.60
2022-12-17T12:04:37.766Z,2.50
2022-12-17T12:07:44.938Z,2.70
2022-12-17T12:10:56.761Z,2.80
2022-12-17T12:14:08.873Z,2.90
2022-12-17T12:17:18.795Z,2.90
2022-12-17T12:20:24.780Z,2.90
2022-12-17T12:23:33.557Z,2.90
2022-12-17T12:26:41.756Z,3.00
2022-12-17T12:29:56.503Z,3.00
2022-12-17T12:33:10.103Z,3.10
2022-12-17T12:36:09.457Z,3.00
2022-12-17T12:39:18.841Z,3.10
2022-12-17T12:42:35.734Z,3.00
2022-12-17T12:45:51.887Z,2.90
2022-12-17T12:49:08.757Z,3.00
2022-12-17T12:52:09.452Z,3.00
2022-12-17T12:55:24.763Z,3.00
2022-12-17T12:58:41.955Z,3.20
2022-12-17T13:01:49.888Z,3.20
2022-12-17T13:04:59.767Z,3.20
2022-12-17T13:07:41.766Z,3.20
2022-12-17T13:10:29.694Z,3.30
2022-12-17T13:13:26.765Z,3.30
2022-12-17T13:16:29.809Z,3.30
2022-12-17T13:19:31.803Z,3.30
2022-12-17T13:22:36.770Z,3.30
2022-12-17T13:25:25.558Z,3.30
2022-12-17T13:28:13.841Z,3.20
2022-12-17T13:30:55.976Z,3.20
2022-12-17T13:33:53.769Z,3.30
2022-12-17T13:36:41.981Z,3.30
2022-12-17T13:42:37.837Z,3.20
2022-12-17T13:45:29.889Z,3.20
2022-12-17T13:48:21.776Z,3.10
2022-12-17T13:51:13.834Z,3.20
2022-12-17T13:53:58.552Z,3.30
2022-12-17T13:56:48.829Z,3.30
2022-12-17T13:59:36.834Z,3.40
2022-12-17T14:02:32.090Z,3.40
2022-12-17T14:05:33.730Z,3.30
2022-12-17T14:08:21.392Z,3.30
2022-12-17T14:11:27.760Z,3.30
2022-12-17T14:14:09.992Z,3.30
2022-12-17T14:16:57.827Z,3.30
2022-12-17T14:19:40.916Z,3.30
2022-12-17T14:22:39.824Z,3.30
2022-12-17T14:25:32.823Z,3.40
2022-12-17T14:28:24.464Z,3.40
2022-12-17T14:31:28.194Z,3.40
2022-12-17T14:34:11.990Z,3.40
2022-12-17T14:37:00.805Z,3.40
2022-12-17T14:39:46.310Z,3.30
2022-12-17T14:42:38.829Z,3.30
2022-12-17T14:45:26.056Z,3.20
2022-12-17T14:48:17.823Z,3.20
2022-12-17T14:50:59.748Z,3.20
2022-12-17T14:53:48.868Z,3.00
2022-12-17T14:56:30.759Z,2.90
2022-12-17T14:59:35.857Z,2.70
2022-12-17T15:02:30.933Z,2.70
2022-12-17T15:05:33.767Z,2.60
2022-12-17T15:08:21.774Z,2.70
2022-12-17T15:11:03.974Z,2.70
2022-12-17T15:13:56.270Z,2.60
2022-12-17T15:16:40.420Z,2.50
2022-12-17T15:19:27.778Z,2.50
2022-12-17T15:22:18.871Z,2.60
2022-12-17T15:25:00.746Z,2.40
2022-12-17T15:27:49.820Z,2.40
2022-12-17T15:30:31.713Z,2.40
2022-12-17T15:33:22.781Z,2.40
2022-12-17T15:36:05.333Z,2.30
2022-12-17T15:38:53.805Z,2.40
2022-12-17T15:42:05.784Z,2.40
2022-12-17T15:44:54.773Z,2.60
2022-12-17T15:47:42.788Z,2.40
2022-12-17T15:50:26.464Z,2.30
2022-12-17T15:53:13.794Z,2.30
2022-12-17T15:56:00.812Z,2.30
2022-12-17T15:58:48.844Z,2.20
2022-12-17T16:01:30.822Z,2.30
2022-12-17T16:04:24.853Z,2.30
2022-12-17T16:07:08.168Z,2.30
2022-12-17T16:09:59.008Z,2.30
2022-12-17T16:12:50.812Z,2.30
2022-12-17T16:15:33.013Z,2.20
2022-12-17T16:18:22.813Z,2.30
2022-12-17T16:21:09.067Z,2.20
2022-12-17T16:23:58.868Z,2.20
2022-12-17T16:26:40.997Z,2.10
2022-12-17T16:29:29.883Z,2.00
2022-12-17T16:32:11.996Z,2.00
2022-12-17T16:34:59.799Z,2.20
2022-12-17T16:37:42.061Z,2.30
2022-12-17T16:40:31.891Z,2.10
2022-12-17T16:43:26.926Z,1.90
2022-12-17T16:46:28.045Z,2.00
2022-12-17T16:49:20.823Z,1.90
2022-12-17T16:52:03.433Z,1.80
2022-12-17T16:54:50.810Z,1.80
2022-12-17T16:57:34.164Z,1.70
2022-12-17T17:00:23.815Z,1.70
2022-12-17T17:03:06.506Z,1.80
2022-12-17T17:05:54.846Z,1.90
2022-12-17T17:08:50.807Z,2.00
2022-12-17T17:11:33.215Z,2.00
2022-12-17T17:14:23.841Z,2.10
2022-12-17T17:17:05.754Z,2.10
2022-12-17T17:19:54.893Z,2.20
2022-12-17T17:22:36.687Z,2.20
2022-12-17T17:25:34.718Z,2.00
2022-12-17T17:28:25.811Z,2.10
2022-12-17T17:31:16.879Z,2.00
2022-12-17T17:33:58.810Z,1.90
2022-12-17T17:36:47.943Z,2.10
2022-12-17T17:39:33.116Z,2.10
2022-12-17T17:42:21.860Z,2.10
2022-12-17T17:45:10.889Z,2.10
2022-12-17T17:47:55.081Z,2.10
2022-12-17T17:50:42.831Z,2.20
2022-12-17T17:53:25.139Z,2.30
2022-12-17T17:56:20.845Z,2.30
2022-12-17T17:59:05.975Z,2.20
2022-12-17T18:01:56.946Z,2.20
2022-12-17T18:04:40.565Z,2.10
2022-12-17T18:07:28.380Z,2.00
2022-12-17T18:10:10.061Z,2.00
2022-12-17T18:13:15.838Z,2.00
2022-12-17T18:16:06.879Z,1.90
2022-12-17T18:18:56.423Z,1.90
2022-12-17T18:21:46.894Z,1.90
2022-12-17T18:24:28.775Z,2.00
2022-12-17T18:27:17.823Z,2.00
2022-12-17T18:29:59.738Z,2.00
2022-12-17T18:32:48.834Z,2.00
2022-12-17T18:35:30.821Z,2.10
2022-12-17T18:38:20.845Z,2.00
2022-12-17T18:41:37.840Z,2.00
2022-12-17T18:44:20.799Z,1.80
2022-12-17T18:47:09.858Z,1.70
2022-12-17T18:49:52.030Z,1.60
2022-12-17T18:52:39.810Z,1.70
2022-12-17T18:55:23.304Z,1.50
2022-12-17T18:58:17.140Z,1.50
2022-12-17T19:01:00.330Z,1.40
2022-12-17T19:03:48.890Z,1.60
2022-12-17T19:06:32.822Z,1.60
2022-12-17T19:09:22.880Z,1.70
2022-12-17T19:12:08.604Z,1.70
2022-12-17T19:14:55.860Z,1.80
2022-12-17T19:17:43.837Z,1.90
2022-12-17T19:20:29.075Z,2.00
2022-12-17T19:23:17.838Z,1.80
2022-12-17T19:26:00.074Z,1.80
2022-12-17T19:28:50.887Z,1.80
2022-12-17T19:31:35.186Z,1.80
2022-12-17T19:34:24.944Z,1.80
2022-12-17T19:37:06.200Z,1.50
2022-12-17T19:39:54.885Z,1.40
2022-12-17T19:42:37.636Z,1.50
2022-12-17T19:45:27.945Z,1.50
2022-12-17T19:48:16.004Z,1.60
2022-12-17T19:50:58.158Z,1.70
2022-12-17T19:53:47.849Z,1.80
2022-12-17T19:56:31.204Z,1.80
2022-12-17T19:59:22.269Z,1.90
2022-12-17T20:02:05.348Z,1.90
2022-12-17T20:04:52.935Z,2.00
2022-12-17T20:07:34.848Z,2.00
2022-12-17T20:10:23.906Z,1.90
2022-12-17T20:13:06.232Z,1.90
2022-12-17T20:15:53.936Z,1.80
2022-12-17T20:18:43.859Z,1.80
2022-12-17T20:21:26.102Z,1.70
2022-12-17T20:24:14.835Z,1.60
2022-12-17T20:26:58.194Z,1.50
2022-12-17T20:29:46.866Z,1.50
2022-12-17T20:32:28.186Z,1.40
2022-12-17T20:35:17.860Z,1.20
2022-12-17T20:37:59.066Z,1.40
2022-12-17T20:40:47.880Z,1.50
2022-12-17T20:43:36.104Z,1.60
2022-12-17T20:46:18.929Z,1.70
2022-12-17T20:49:01.645Z,1.70
2022-12-17T20:51:50.980Z,1.80
2022-12-17T20:54:46.160Z,1.60
2022-12-17T20:57:27.680Z,1.60
2022-12-17T21:00:14.874Z,1.50
2022-12-17T21:02:57.438Z,1.50
2022-12-17T21:05:45.256Z,1.60
2022-12-17T21:08:28.178Z,1.70
2022-12-17T21:11:16.896Z,1.70
2022-12-17T21:13:59.352Z,1.60
2022-12-17T21:16:48.936Z,1.70
2022-12-17T21:19:30.806Z,1.70
2022-12-17T21:22:18.922Z,1.60
2022-12-17T21:25:02.116Z,1.50
2022-12-17T21:27:50.894Z,1.50
2022-12-17T21:30:42.986Z,1.50
2022-12-17T21:33:24.158Z,1.70
2022-12-17T21:36:13.881Z,1.60
2022-12-17T21:38:56.054Z,1.40
2022-12-17T21:41:47.943Z,1.20
2022-12-17T21:44:29.162Z,1.00
2022-12-17T21:47:17.959Z,1.10
2022-12-17T21:50:00.169Z,1.30
2022-12-17T21:52:48.871Z,1.50
2022-12-17T21:55:30.140Z,1.60
2022-12-17T21:58:19.897Z,1.70
2022-12-17T22:01:08.949Z,1.70
2022-12-17T22:04:07.192Z,1.80
2022-12-17T22:06:56.981Z,1.70
2022-12-17T22:10:10.038Z,1.70
2022-12-17T22:13:07.915Z,1.80
2022-12-17T22:15:51.238Z,1.80
2022-12-17T22:18:40.155Z,1.70
2022-12-17T22:21:22.242Z,1.50
2022-12-17T22:24:09.958Z,1.50
2022-12-17T22:26:52.237Z,1.50
2022-12-17T22:29:57.895Z,1.50
2022-12-17T22:33:16.647Z,1.30
2022-12-17T22:38:36.136Z,1.40
2022-12-17T22:40:46.819Z,1.50
2022-12-17T22:44:38.096Z,1.60
2022-12-17T22:45:47.908Z,1.50
2022-12-17T22:48:32.129Z,1.60
2022-12-17T22:51:36.961Z,1.60
2022-12-17T22:54:21.885Z,1.40
2022-12-17T22:57:34.739Z,1.50
2022-12-17T23:00:29.918Z,1.50
2022-12-17T23:03:12.505Z,1.50
2022-12-17T23:06:01.903Z,1.40
2022-12-17T23:08:44.652Z,1.30
2022-12-17T23:11:37.930Z,1.30
2022-12-17T23:14:19.910Z,1.30
2022-12-17T23:17:07.954Z,1.30
2022-12-17T23:19:49.879Z,1.20
2022-12-17T23:22:39.918Z,1.20
2022-12-17T23:25:23.242Z,1.00
2022-12-17T23:28:10.993Z,0.90
2022-12-17T23:31:06.017Z,0.80
2022-12-17T23:33:48.736Z,0.80
2022-12-17T23:36:38.907Z,0.70
2022-12-17T23:39:22.366Z,0.50
2022-12-17T23:42:11.015Z,0.40
2022-12-17T23:44:52.905Z,0.50
2022-12-17T23:47:41.943Z,0.60
2022-12-17T23:50:24.846Z,0.70
2022-12-17T23:53:13.966Z,0.80
2022-12-17T23:56:06.052Z,0.70
2022-12-17T23:58:55.901Z,0.70
